Time;durP1;ratioP1;P1;durP2;ratioP2;P2;SDS_P1;SDS_P2;PMS_P1;PMS_P2;Temp;Humidity;BMP_temperature;BMP_pressure;BME280_temperature;BME280_humidity;BME280_pressure;Samples;Min_cycle;Max_cycle;Signal;HPM_P1;HPM_P2
2024/01/30 00:02:25;;;;;;;31.23;19.30;;;22.10;52.20;;;;;;5113428;28;20032;-71
2024/01/30 00:04:51;;;;;;;30.48;19.13;;;22.00;52.30;;;;;;5094992;28;20115;-71
2024/01/30 00:07:17;;;;;;;35.28;19.67;;;22.10;52.50;;;;;;5113000;28;20103;-71
2024/01/30 00:09:46;;;;;;;33.90;19.08;;;22.00;52.40;;;;;;5112021;28;20036;-71
2024/01/30 00:12:12;;;;;;;29.70;19.10;;;22.10;52.50;;;;;;5111615;28;20062;-71
2024/01/30 00:14:38;;;;;;;33.47;19.17;;;22.10;52.40;;;;;;5094299;28;20167;-71
2024/01/30 00:17:04;;;;;;;29.45;19.17;;;22.00;52.20;;;;;;5112112;28;20071;-71
2024/01/30 00:19:30;;;;;;;35.13;19.40;;;22.20;52.30;;;;;;5049479;28;20122;-71
2024/01/30 00:21:56;;;;;;;27.70;18.08;;;22.00;52.30;;;;;;5049285;28;20099;-71
2024/01/30 00:24:22;;;;;;;35.28;20.15;;;22.20;52.30;;;;;;5033200;28;20131;-71
2024/01/30 00:26:48;;;;;;;28.75;17.80;;;22.20;52.30;;;;;;5048448;28;20119;-71
2024/01/30 00:29:19;;;;;;;29.08;17.02;;;22.00;52.30;;;;;;5049457;28;20095;-72
2024/01/30 00:31:45;;;;;;;30.20;18.50;;;22.20;52.30;;;;;;5049494;28;20044;-71
2024/01/30 00:34:11;;;;;;;34.58;18.38;;;22.20;52.30;;;;;;4973371;28;20046;-70
2024/01/30 00:36:38;;;;;;;26.17;18.02;;;22.10;52.20;;;;;;5006239;28;20431;-71
2024/01/30 00:39:09;;;;;;;29.33;17.90;;;22.10;52.20;;;;;;4990638;28;20046;-71
2024/01/30 00:41:35;;;;;;;28.38;17.75;;;22.10;52.20;;;;;;4989766;28;20077;-71
2024/01/30 00:44:01;;;;;;;30.65;18.70;;;22.00;52.20;;;;;;4989903;28;20050;-71
2024/01/30 00:46:27;;;;;;;29.38;17.23;;;22.00;52.20;;;;;;4990313;28;20139;-71
2024/01/30 00:48:53;;;;;;;35.95;19.92;;;22.00;52.30;;;;;;4986736;28;20126;-71
2024/01/30 00:51:19;;;;;;;33.88;20.00;;;22.00;52.30;;;;;;5028618;28;20045;-71
2024/01/30 00:53:45;;;;;;;30.67;19.27;;;22.00;52.30;;;;;;5049512;28;20080;-71
2024/01/30 00:56:11;;;;;;;32.35;19.38;;;21.90;52.30;;;;;;5048002;28;20098;-70
2024/01/30 00:58:38;;;;;;;34.13;19.08;;;21.90;52.30;;;;;;5049366;28;20053;-71
2024/01/30 01:01:04;;;;;;;37.00;19.58;;;21.90;52.30;;;;;;5032309;28;20040;-70
2024/01/30 01:03:30;;;;;;;33.70;20.05;;;21.90;52.40;;;;;;5049047;28;20593;-71
2024/01/30 01:05:56;;;;;;;37.45;19.77;;;21.90;52.50;;;;;;5080909;28;20590;-71
2024/01/30 01:08:22;;;;;;;30.60;19.25;;;21.90;52.50;;;;;;5069173;28;20072;-71
2024/01/30 01:10:48;;;;;;;36.97;20.13;;;21.90;52.40;;;;;;5084563;28;20044;-71
2024/01/30 01:13:14;;;;;;;32.28;17.85;;;21.90;52.40;;;;;;5089353;28;20048;-71
2024/01/30 01:15:40;;;;;;;30.10;18.40;;;22.10;52.40;;;;;;5089107;28;20380;-71
2024/01/30 01:18:06;;;;;;;31.58;19.67;;;21.90;52.30;;;;;;5088727;28;20048;-71
2024/01/30 01:20:32;;;;;;;33.28;19.08;;;22.00;52.40;;;;;;5089135;28;20032;-73
2024/01/30 01:22:59;;;;;;;28.73;17.05;;;22.00;52.50;;;;;;5088754;28;20147;-71
2024/01/30 01:25:25;;;;;;;29.88;18.45;;;22.00;52.50;;;;;;5057211;28;20041;-72
2024/01/30 01:27:52;;;;;;;26.13;18.52;;;22.00;52.50;;;;;;5048919;28;20135;-72
2024/01/30 01:30:21;;;;;;;25.38;16.65;;;22.00;52.80;;;;;;5048281;28;20508;-71
2024/01/30 01:32:54;;;;;;;29.02;17.85;;;22.00;52.80;;;;;;5049055;28;20068;-71
2024/01/30 01:35:24;;;;;;;30.83;17.00;;;21.90;52.90;;;;;;5048637;28;20052;-70
2024/01/30 01:37:54;;;;;;;29.08;17.80;;;21.90;53.00;;;;;;5037422;28;20142;-72
2024/01/30 01:40:24;;;;;;;30.52;17.45;;;22.10;53.20;;;;;;5051454;28;20397;-71
2024/01/30 01:42:52;;;;;;;33.78;18.52;;;21.90;53.10;;;;;;5048622;28;20037;-71
2024/01/30 01:45:19;;;;;;;29.77;18.02;;;21.90;53.10;;;;;;5048251;28;20044;-71
2024/01/30 01:47:48;;;;;;;29.10;16.95;;;21.80;53.10;;;;;;5048401;28;20080;-71
2024/01/30 01:50:19;;;;;;;29.58;18.92;;;21.90;53.10;;;;;;5048165;28;20056;-71
2024/01/30 01:52:50;;;;;;;32.45;20.33;;;21.90;53.10;;;;;;5048033;28;20032;-72
2024/01/30 01:55:21;;;;;;;33.75;19.42;;;21.80;52.90;;;;;;5048967;28;20112;-72
2024/01/30 01:57:48;;;;;;;35.75;19.95;;;21.80;52.80;;;;;;5092438;28;20517;-71
2024/01/30 02:00:15;;;;;;;32.30;19.27;;;21.80;52.80;;;;;;5111033;28;20038;-71
2024/01/30 02:02:43;;;;;;;36.65;20.02;;;21.80;52.80;;;;;;5111422;28;20529;-71
2024/01/30 02:05:09;;;;;;;32.75;19.80;;;21.80;52.70;;;;;;5111162;28;20071;-71
2024/01/30 02:07:35;;;;;;;31.08;19.17;;;21.80;52.70;;;;;;5111077;28;20032;-71
2024/01/30 02:10:03;;;;;;;31.77;18.77;;;21.80;52.60;;;;;;5110329;28;20026;-71
2024/01/30 02:12:30;;;;;;;30.75;19.00;;;21.90;52.60;;;;;;5111345;28;20031;-72
2024/01/30 02:14:56;;;;;;;31.88;18.70;;;21.80;52.50;;;;;;5111437;28;20066;-71
2024/01/30 02:17:23;;;;;;;32.40;18.70;;;21.90;52.60;;;;;;5111247;28;20516;-71
2024/01/30 02:19:49;;;;;;;30.73;18.73;;;22.00;52.40;;;;;;5092936;28;20020;-71
2024/01/30 02:22:16;;;;;;;32.05;18.83;;;21.90;52.40;;;;;;5110627;28;20085;-71
2024/01/30 02:24:42;;;;;;;28.02;18.30;;;21.80;52.20;;;;;;5109826;28;20061;-71
2024/01/30 02:27:08;;;;;;;29.05;17.90;;;21.80;52.30;;;;;;5111088;28;20035;-71
2024/01/30 02:29:34;;;;;;;31.00;18.67;;;21.80;52.20;;;;;;5092237;28;20130;-71
2024/01/30 02:32:00;;;;;;;33.05;19.30;;;21.90;52.30;;;;;;5092639;28;20479;-71
2024/01/30 02:34:26;;;;;;;39.15;19.88;;;21.90;52.30;;;;;;5110810;28;20070;-71
2024/01/30 02:36:52;;;;;;;35.95;19.45;;;21.80;52.20;;;;;;5111228;28;20039;-72
2024/01/30 02:39:18;;;;;;;30.10;19.02;;;21.90;52.30;;;;;;5110108;28;20114;-71
2024/01/30 02:41:45;;;;;;;34.30;18.38;;;21.80;52.20;;;;;;5110648;28;20046;-71
2024/01/30 02:44:11;;;;;;;31.55;18.42;;;21.80;52.20;;;;;;5110850;28;20081;-71
2024/01/30 02:46:37;;;;;;;26.38;16.30;;;21.60;52.20;;;;;;5110995;28;20084;-71
2024/01/30 02:49:03;;;;;;;25.25;16.23;;;21.60;52.20;;;;;;5092817;28;20148;-71
2024/01/30 02:51:29;;;;;;;27.13;17.25;;;21.70;52.20;;;;;;5123511;27;20467;-71
2024/01/30 02:53:55;;;;;;;27.73;17.75;;;21.60;52.10;;;;;;5114405;28;20482;-72
2024/01/30 02:56:21;;;;;;;28.88;17.77;;;21.70;52.30;;;;;;5113603;28;20032;-72
2024/01/30 02:58:47;;;;;;;28.33;18.02;;;21.50;52.70;;;;;;5114786;28;20031;-71
2024/01/30 03:01:13;;;;;;;36.33;19.45;;;21.60;52.90;;;;;;5114333;28;20074;-71
2024/01/30 03:03:40;;;;;;;30.40;18.10;;;21.70;53.10;;;;;;5114942;28;20040;-71
2024/01/30 03:06:07;;;;;;;32.72;18.38;;;21.60;53.00;;;;;;5114601;28;20356;-71
2024/01/30 03:08:35;;;;;;;28.58;16.88;;;21.50;53.00;;;;;;5096376;28;20413;-71
2024/01/30 03:11:01;;;;;;;27.30;17.88;;;21.80;53.00;;;;;;5114052;28;20123;-71
2024/01/30 03:13:27;;;;;;;27.13;19.02;;;21.70;52.80;;;;;;5096288;28;20059;-71
2024/01/30 03:15:53;;;;;;;32.53;18.77;;;21.60;52.70;;;;;;5096196;28;20122;-71
2024/01/30 03:18:19;;;;;;;27.95;16.98;;;21.70;52.70;;;;;;5114034;28;20460;-71
2024/01/30 03:20:45;;;;;;;28.42;18.00;;;21.80;52.60;;;;;;5114542;28;20471;-71
2024/01/30 03:23:11;;;;;;;28.85;17.77;;;21.70;52.60;;;;;;5114135;28;20451;-71
2024/01/30 03:25:37;;;;;;;30.63;17.63;;;21.70;52.50;;;;;;5095963;28;20035;-71
2024/01/30 03:28:04;;;;;;;29.40;18.42;;;21.70;52.50;;;;;;5114336;28;20130;-71
2024/01/30 03:30:30;;;;;;;32.47;18.10;;;21.70;52.40;;;;;;5113988;28;20140;-72
2024/01/30 03:32:56;;;;;;;33.75;18.75;;;21.70;52.40;;;;;;5113622;28;20490;-72
2024/01/30 03:35:22;;;;;;;29.50;18.05;;;21.60;52.40;;;;;;5114335;28;20043;-71
2024/01/30 03:37:48;;;;;;;31.08;19.67;;;21.70;52.50;;;;;;5113904;28;20040;-71
2024/01/30 03:40:15;;;;;;;32.38;19.58;;;21.60;52.30;;;;;;5113542;28;20099;-71
2024/01/30 03:42:41;;;;;;;29.55;18.90;;;21.60;52.40;;;;;;5096639;28;20162;-72
2024/01/30 03:45:08;;;;;;;29.80;17.08;;;21.70;52.40;;;;;;5113938;28;20547;-72
2024/01/30 03:47:34;;;;;;;31.35;17.15;;;21.70;52.40;;;;;;5113791;28;20061;-71
2024/01/30 03:50:00;;;;;;;23.17;15.88;;;21.50;52.40;;;;;;5094772;28;20035;-70
2024/01/30 03:52:26;;;;;;;24.73;14.68;;;21.50;52.40;;;;;;5113485;28;20088;-71
2024/01/30 03:54:52;;;;;;;24.92;14.32;;;21.50;52.40;;;;;;5113532;28;20023;-71
2024/01/30 03:57:18;;;;;;;27.60;16.60;;;21.50;52.40;;;;;;5113643;28;20039;-71
2024/01/30 03:59:44;;;;;;;26.88;16.27;;;21.50;52.40;;;;;;5113705;28;20463;-71
2024/01/30 04:02:11;;;;;;;28.67;16.58;;;21.50;52.50;;;;;;5095061;28;20039;-71
2024/01/30 04:04:38;;;;;;;24.05;14.25;;;21.40;52.40;;;;;;5113626;28;20059;-71
2024/01/30 04:07:04;;;;;;;25.58;16.00;;;21.40;52.30;;;;;;5113080;28;20035;-72
2024/01/30 04:09:30;;;;;;;25.58;15.75;;;21.40;52.30;;;;;;5112852;28;20106;-71
2024/01/30 04:11:56;;;;;;;26.20;15.52;;;21.40;52.30;;;;;;5094894;28;20375;-71
2024/01/30 04:14:22;;;;;;;31.58;18.45;;;21.60;52.40;;;;;;5113402;28;20028;-71
2024/01/30 04:16:48;;;;;;;25.40;15.68;;;21.40;52.30;;;;;;5095026;28;20375;-71
2024/01/30 04:19:14;;;;;;;26.67;15.50;;;21.40;52.30;;;;;;5076954;28;20040;-71
2024/01/30 04:21:40;;;;;;;24.77;15.30;;;21.50;52.50;;;;;;5082558;28;20435;-72
2024/01/30 04:24:06;;;;;;;27.30;16.88;;;21.60;52.50;;;;;;5050971;28;20662;-71
2024/01/30 04:26:32;;;;;;;28.92;15.02;;;21.50;52.50;;;;;;5068143;28;20054;-71
2024/01/30 04:28:58;;;;;;;26.50;16.73;;;21.40;52.40;;;;;;5069892;28;20128;-71
2024/01/30 04:31:24;;;;;;;31.20;16.65;;;21.70;52.50;;;;;;5065878;28;20044;-71
2024/01/30 04:33:51;;;;;;;26.02;15.68;;;21.50;52.40;;;;;;5049868;28;20056;-71
2024/01/30 04:36:17;;;;;;;28.35;17.65;;;21.60;52.30;;;;;;5049879;28;20040;-70
2024/01/30 04:38:43;;;;;;;30.38;18.45;;;21.50;52.30;;;;;;5051925;28;20056;-71
2024/01/30 04:41:09;;;;;;;31.20;17.92;;;21.60;52.20;;;;;;5059279;28;20435;-72
2024/01/30 04:43:35;;;;;;;24.98;15.98;;;21.60;52.20;;;;;;5070040;28;20040;-71
2024/01/30 04:46:01;;;;;;;25.80;15.38;;;21.50;52.20;;;;;;5069436;28;20481;-71
2024/01/30 04:48:27;;;;;;;24.48;15.13;;;21.60;52.00;;;;;;5069159;28;20045;-71
2024/01/30 04:50:54;;;;;;;25.73;15.60;;;21.80;52.10;;;;;;5051687;28;20051;-71
2024/01/30 04:53:21;;;;;;;30.73;16.40;;;21.70;52.10;;;;;;5052484;28;20037;-71
2024/01/30 04:55:47;;;;;;;27.80;17.40;;;21.70;52.00;;;;;;5069514;28;20387;-71
2024/01/30 04:58:13;;;;;;;25.52;16.35;;;21.60;51.90;;;;;;5112471;28;20443;-71
2024/01/30 05:00:39;;;;;;;31.88;17.15;;;21.70;51.90;;;;;;5094191;28;20063;-71
2024/01/30 05:03:05;;;;;;;27.05;17.23;;;21.80;52.20;;;;;;5111806;28;20030;-72
2024/01/30 05:05:31;;;;;;;28.35;16.85;;;21.90;52.10;;;;;;5112216;28;20032;-71
2024/01/30 05:07:57;;;;;;;33.10;19.05;;;21.80;51.90;;;;;;5111587;28;20136;-71
2024/01/30 05:10:23;;;;;;;30.50;17.27;;;21.90;52.00;;;;;;5094188;28;20043;-71
2024/01/30 05:12:49;;;;;;;31.50;17.40;;;22.00;52.00;;;;;;5111605;28;20038;-71
2024/01/30 05:15:15;;;;;;;29.48;16.73;;;21.90;52.00;;;;;;5112417;28;20023;-71
2024/01/30 05:17:41;;;;;;;29.92;17.38;;;21.80;51.80;;;;;;5111845;28;20130;-72
2024/01/30 05:20:09;;;;;;;23.17;13.85;;;21.90;51.90;;;;;;5112150;28;20039;-70
2024/01/30 05:22:35;;;;;;;24.88;14.77;;;21.90;51.80;;;;;;5111526;28;20035;-71
2024/01/30 05:25:01;;;;;;;19.90;12.50;;;21.90;51.70;;;;;;5093086;28;20035;-71
2024/01/30 05:27:27;;;;;;;21.83;13.15;;;21.90;51.70;;;;;;5111891;28;20046;-71
2024/01/30 05:29:53;;;;;;;22.60;13.80;;;21.90;51.70;;;;;;5111797;28;20043;-71
2024/01/30 05:32:19;;;;;;;18.27;12.10;;;21.80;51.60;;;;;;5111011;28;20020;-72
2024/01/30 05:34:46;;;;;;;16.90;11.35;;;21.90;51.70;;;;;;5093678;28;20032;-71
2024/01/30 05:37:16;;;;;;;18.67;11.55;;;21.90;51.70;;;;;;5110617;28;20115;-71
2024/01/30 05:39:42;;;;;;;19.42;12.23;;;21.80;51.60;;;;;;5093618;28;20039;-72
2024/01/30 05:42:09;;;;;;;17.13;11.68;;;21.90;51.60;;;;;;5111210;28;20032;-71
2024/01/30 05:44:36;;;;;;;17.92;12.13;;;21.80;51.50;;;;;;5112122;28;20042;-71
2024/01/30 05:47:02;;;;;;;19.10;13.05;;;21.90;51.60;;;;;;5112750;27;20094;-70
2024/01/30 05:49:28;;;;;;;19.33;11.18;;;21.90;51.70;;;;;;5132874;27;20102;-71
2024/01/30 05:51:54;;;;;;;19.33;11.98;;;21.90;51.70;;;;;;5092804;28;20039;-71
2024/01/30 05:54:20;;;;;;;19.88;12.73;;;21.80;51.60;;;;;;5111936;28;20542;-72
2024/01/30 05:56:46;;;;;;;21.55;11.88;;;21.80;51.40;;;;;;5110871;28;20328;-72
2024/01/30 05:59:12;;;;;;;15.82;10.95;;;21.80;51.40;;;;;;5111648;28;20032;-71
2024/01/30 06:01:38;;;;;;;18.02;11.27;;;21.70;51.50;;;;;;5111312;28;20023;-71
2024/01/30 06:04:04;;;;;;;17.73;11.93;;;21.70;51.50;;;;;;5093543;28;20043;-71
2024/01/30 06:06:30;;;;;;;21.33;12.60;;;21.90;51.50;;;;;;5110636;28;20027;-70
2024/01/30 06:08:56;;;;;;;21.48;11.32;;;21.90;51.50;;;;;;5108707;28;20054;-68
2024/01/30 06:11:22;;;;;;;16.42;11.00;;;21.80;50.70;;;;;;5092303;28;20058;-70
2024/01/30 06:13:49;;;;;;;4.95;3.50;;;21.80;50.90;;;;;;5111254;28;20395;-69
2024/01/30 06:16:15;;;;;;;5.25;4.30;;;21.80;45.50;;;;;;5111428;28;20028;-70
2024/01/30 06:18:41;;;;;;;5.32;4.45;;;21.80;44.00;;;;;;5073209;28;20479;-71
2024/01/30 06:21:07;;;;;;;7.00;4.80;;;21.70;45.00;;;;;;5110829;28;20127;-72
2024/01/30 06:23:33;;;;;;;7.85;5.15;;;21.70;42.50;;;;;;5110000;28;20506;-70
2024/01/30 06:25:59;;;;;;;7.50;5.07;;;21.80;42.40;;;;;;5109664;28;20427;-73
2024/01/30 06:28:25;;;;;;;7.57;5.88;;;21.90;44.90;;;;;;5111467;28;20063;-72
2024/01/30 06:30:51;;;;;;;8.30;6.28;;;22.00;42.10;;;;;;5114446;28;20031;-72
2024/01/30 06:33:17;;;;;;;10.05;5.63;;;21.90;43.30;;;;;;5114586;28;20061;-72
2024/01/30 06:35:45;;;;;;;8.15;6.50;;;22.10;47.30;;;;;;5114611;28;20020;-72
2024/01/30 06:38:13;;;;;;;10.60;7.70;;;22.20;48.20;;;;;;5096493;28;20035;-73
2024/01/30 06:40:39;;;;;;;9.20;7.32;;;22.20;44.90;;;;;;5114224;28;20023;-72
2024/01/30 06:43:05;;;;;;;16.00;8.73;;;22.40;47.30;;;;;;5113073;28;20766;-74
2024/01/30 06:45:31;;;;;;;13.13;9.98;;;22.30;51.40;;;;;;5113895;28;20031;-73
2024/01/30 06:47:57;;;;;;;10.27;7.95;;;22.50;50.50;;;;;;5114230;28;20794;-73
2024/01/30 06:50:23;;;;;;;13.98;11.98;;;22.60;52.50;;;;;;5113020;27;20149;-74
2024/01/30 06:52:49;;;;;;;32.33;21.20;;;22.70;51.50;;;;;;5080855;27;20058;-68
2024/01/30 06:55:16;;;;;;;43.05;23.73;;;22.60;51.30;;;;;;5125204;27;20163;-75
2024/01/30 06:57:42;;;;;;;33.70;23.15;;;22.60;50.50;;;;;;5116584;27;20040;-70
2024/01/30 07:00:08;;;;;;;34.47;23.10;;;22.70;51.40;;;;;;5113939;28;20080;-71
2024/01/30 07:02:34;;;;;;;34.92;22.65;;;22.60;51.80;;;;;;5095631;28;20068;-69
2024/01/30 07:05:00;;;;;;;36.40;22.27;;;22.70;51.60;;;;;;5113927;28;20024;-68
2024/01/30 07:07:26;;;;;;;31.10;18.98;;;22.70;51.30;;;;;;5113320;28;20093;-72
2024/01/30 07:09:56;;;;;;;36.50;19.75;;;22.50;51.10;;;;;;5110000;27;20027;-69
2024/01/30 07:12:25;;;;;;;40.95;22.23;;;22.50;51.10;;;;;;5113756;27;20031;-71
2024/01/30 07:14:52;;;;;;;31.90;20.27;;;22.60;51.10;;;;;;5094291;28;20436;-70
2024/01/30 07:17:18;;;;;;;27.35;17.35;;;22.40;51.00;;;;;;5108559;27;20039;-68
2024/01/30 07:19:44;;;;;;;26.92;16.33;;;22.50;51.10;;;;;;5124277;27;20038;-67
2024/01/30 07:22:10;;;;;;;23.27;14.40;;;22.40;51.20;;;;;;5115098;27;20051;-68
2024/01/30 07:24:36;;;;;;;28.08;15.38;;;22.40;51.30;;;;;;5099915;27;20034;-68
2024/01/30 07:27:02;;;;;;;20.52;13.65;;;22.50;51.40;;;;;;5118034;27;20086;-71
2024/01/30 07:29:28;;;;;;;20.52;14.20;;;22.40;51.40;;;;;;5124402;27;20057;-69
2024/01/30 07:31:54;;;;;;;23.60;13.90;;;22.50;51.50;;;;;;5119796;28;20036;-69
2024/01/30 07:34:20;;;;;;;19.95;11.82;;;22.60;51.60;;;;;;5115833;28;20032;-72
2024/01/30 07:36:47;;;;;;;16.88;11.55;;;22.40;51.90;;;;;;5113165;28;20030;-71
2024/01/30 07:39:13;;;;;;;17.45;11.25;;;22.40;52.00;;;;;;5123956;27;20470;-73
2024/01/30 07:41:39;;;;;;;17.60;11.10;;;22.40;52.20;;;;;;5112934;28;20028;-73
2024/01/30 07:44:05;;;;;;;16.92;11.23;;;22.30;52.30;;;;;;5124127;28;20485;-68
2024/01/30 07:46:31;;;;;;;18.20;10.77;;;22.30;52.60;;;;;;5115948;28;20042;-67
2024/01/30 07:48:57;;;;;;;17.05;11.27;;;22.40;52.50;;;;;;5111985;28;20020;-68
2024/01/30 07:51:23;;;;;;;16.90;12.30;;;22.30;53.20;;;;;;5094230;28;20032;-71
2024/01/30 07:53:50;;;;;;;21.77;13.07;;;22.30;53.20;;;;;;5114207;28;20038;-68
2024/01/30 07:56:16;;;;;;;18.25;12.15;;;22.20;53.10;;;;;;5110227;28;20044;-68
2024/01/30 07:58:42;;;;;;;18.20;12.85;;;22.20;53.30;;;;;;5117799;28;20103;-67
2024/01/30 08:01:08;;;;;;;19.30;12.13;;;22.20;53.70;;;;;;5096320;28;20023;-68
2024/01/30 08:03:34;;;;;;;20.88;12.38;;;22.10;52.90;;;;;;5111741;28;20069;-67
2024/01/30 08:06:00;;;;;;;21.23;12.30;;;22.10;53.00;;;;;;5112201;28;20030;-69
2024/01/30 08:08:26;;;;;;;19.45;12.10;;;22.00;53.30;;;;;;5111846;28;20735;-69
2024/01/30 08:10:53;;;;;;;22.60;13.23;;;22.10;53.50;;;;;;5104116;28;20047;-69
2024/01/30 08:13:19;;;;;;;24.60;14.75;;;22.00;53.40;;;;;;5110685;28;20027;-69
2024/01/30 08:15:45;;;;;;;26.45;16.90;;;22.00;53.40;;;;;;5114967;28;20039;-68
2024/01/30 08:18:11;;;;;;;24.80;16.88;;;22.10;53.70;;;;;;5113320;28;20836;-71
2024/01/30 08:20:37;;;;;;;23.42;14.95;;;22.10;54.00;;;;;;5094513;28;20032;-69
2024/01/30 08:23:03;;;;;;;24.25;15.73;;;22.00;53.90;;;;;;5112371;28;20031;-69
2024/01/30 08:25:30;;;;;;;24.58;16.30;;;22.00;54.00;;;;;;5112448;28;20039;-70
2024/01/30 08:27:57;;;;;;;4.88;3.63;;;22.20;54.20;;;;;;5063504;28;1380181;-71
2024/01/30 08:30:23;;;;;;;7.57;4.10;;;22.20;53.00;;;;;;5112454;28;20046;-70
2024/01/30 08:32:49;;;;;;;6.47;4.90;;;22.20;50.50;;;;;;5100053;28;20432;-70
2024/01/30 08:35:15;;;;;;;6.05;4.47;;;22.40;51.20;;;;;;5112790;28;20036;-71
2024/01/30 08:37:42;;;;;;;7.57;4.95;;;22.70;50.70;;;;;;5112685;28;20497;-70
2024/01/30 08:40:08;;;;;;;10.05;5.85;;;22.80;48.50;;;;;;5112347;28;20447;-74
2024/01/30 08:42:34;;;;;;;6.90;6.15;;;23.20;48.30;;;;;;5112738;28;20031;-74
2024/01/30 08:45:01;;;;;;;7.63;6.03;;;23.30;49.90;;;;;;5111955;28;20034;-72
2024/01/30 08:47:27;;;;;;;7.80;6.30;;;23.50;49.70;;;;;;5110676;28;20478;-71
2024/01/30 08:49:53;;;;;;;15.95;8.52;;;23.80;51.70;;;;;;5110804;28;20042;-72
2024/01/30 08:52:19;;;;;;;10.75;9.48;;;24.00;53.00;;;;;;5112471;28;20055;-72
2024/01/30 08:54:45;;;;;;;14.10;10.10;;;24.40;56.90;;;;;;5112586;28;20498;-72
2024/01/30 08:57:11;;;;;;;12.93;9.27;;;24.30;50.80;;;;;;5112255;28;20081;-74
2024/01/30 08:59:37;;;;;;;21.58;14.95;;;24.50;52.60;;;;;;5094263;28;20113;-75
2024/01/30 09:02:04;;;;;;;13.02;10.68;;;24.50;50.50;;;;;;5110922;28;20019;-71
2024/01/30 09:04:30;;;;;;;14.35;9.63;;;24.60;53.00;;;;;;5111520;28;20475;-71
2024/01/30 09:06:57;;;;;;;14.07;8.98;;;24.90;49.90;;;;;;5116762;27;20023;-69
2024/01/30 09:09:23;;;;;;;12.40;9.57;;;25.00;50.40;;;;;;5093825;28;20032;-71
2024/01/30 09:11:49;;;;;;;14.45;9.15;;;25.10;49.20;;;;;;5112200;28;20027;-72
2024/01/30 09:14:15;;;;;;;10.73;9.40;;;25.10;50.00;;;;;;5093481;28;20096;-69
2024/01/30 09:16:41;;;;;;;12.55;9.68;;;25.30;49.00;;;;;;5110588;28;20038;-72
2024/01/30 09:19:07;;;;;;;11.00;8.23;;;25.30;45.50;;;;;;5110832;28;20038;-69
2024/01/30 09:21:33;;;;;;;9.85;8.32;;;25.10;45.40;;;;;;5110720;28;20055;-68
2024/01/30 09:24:07;;;;;;;9.38;8.02;;;25.20;45.20;;;;;;5110755;28;20406;-69
2024/01/30 09:26:33;;;;;;;8.75;7.15;;;25.20;46.10;;;;;;5076674;28;20043;-67
2024/01/30 09:28:59;;;;;;;9.07;8.15;;;25.20;44.00;;;;;;5110026;28;20379;-71
2024/01/30 09:31:25;;;;;;;9.73;8.00;;;25.00;42.10;;;;;;5092881;28;20364;-68
2024/01/30 09:33:53;;;;;;;11.02;7.47;;;25.00;43.80;;;;;;5112161;28;20093;-68
2024/01/30 09:36:20;;;;;;;12.30;7.97;;;24.90;44.40;;;;;;5099608;27;20110;-73
2024/01/30 09:38:46;;;;;;;10.65;7.82;;;24.80;42.90;;;;;;5113945;27;20043;-71
2024/01/30 09:41:13;;;;;;;9.82;7.13;;;24.80;44.30;;;;;;5116617;27;20032;-69
2024/01/30 09:43:42;;;;;;;10.35;8.27;;;24.90;45.30;;;;;;5091013;28;20043;-70
2024/01/30 09:46:15;;;;;;;9.95;7.30;;;24.70;44.10;;;;;;5111442;28;20043;-72
2024/01/30 09:48:42;;;;;;;11.98;7.47;;;24.90;45.50;;;;;;5057782;28;20046;-71
2024/01/30 09:51:10;;;;;;;10.95;6.85;;;24.90;43.70;;;;;;5110358;28;20031;-73
2024/01/30 09:53:37;;;;;;;8.52;7.03;;;24.70;39.60;;;;;;5091838;28;20067;-70
2024/01/30 09:56:05;;;;;;;8.27;6.78;;;24.60;33.60;;;;;;5111736;28;20411;-71
2024/01/30 09:58:31;;;;;;;12.52;7.55;;;24.40;34.20;;;;;;5115777;27;20536;-69
2024/01/30 10:00:57;;;;;;;12.38;6.93;;;24.30;37.60;;;;;;5110696;28;20120;-71
2024/01/30 10:03:23;;;;;;;9.95;7.55;;;24.30;38.90;;;;;;5110418;28;20470;-70
2024/01/30 10:05:53;;;;;;;8.82;5.80;;;24.40;39.90;;;;;;5111176;28;20023;-72
2024/01/30 10:08:19;;;;;;;9.52;6.93;;;24.30;39.70;;;;;;5110714;28;20449;-69
2024/01/30 10:10:49;;;;;;;12.05;6.10;;;24.20;37.70;;;;;;5116955;28;20034;-78
2024/01/30 10:13:16;;;;;;;10.23;6.18;;;24.10;35.80;;;;;;5131981;28;20150;-75
2024/01/30 10:15:42;;;;;;;11.27;7.15;;;24.10;35.80;;;;;;5131546;27;20038;-74
2024/01/30 10:18:10;;;;;;;9.18;6.20;;;24.00;36.10;;;;;;5093012;28;20028;-76
2024/01/30 10:20:36;;;;;;;8.27;6.07;;;24.10;32.40;;;;;;5111566;28;20051;-73
2024/01/30 10:23:03;;;;;;;9.20;5.95;;;24.00;35.40;;;;;;5110940;28;20469;-74
2024/01/30 10:25:31;;;;;;;7.97;6.20;;;23.80;35.20;;;;;;5111168;28;20105;-73
2024/01/30 10:27:58;;;;;;;9.90;6.15;;;23.80;33.50;;;;;;5110761;28;20403;-72
2024/01/30 10:30:25;;;;;;;8.95;6.78;;;23.70;34.00;;;;;;5110482;28;20159;-72
2024/01/30 10:32:51;;;;;;;9.05;6.20;;;23.70;34.80;;;;;;5092234;28;20032;-71
2024/01/30 10:35:17;;;;;;;8.57;6.03;;;23.70;35.30;;;;;;5110338;28;20062;-72
2024/01/30 10:37:45;;;;;;;8.43;6.18;;;23.70;34.50;;;;;;5092095;28;20059;-70
2024/01/30 10:40:13;;;;;;;7.72;4.78;;;23.60;35.40;;;;;;5110305;28;20297;-71
2024/01/30 10:42:43;;;;;;;8.20;4.95;;;23.60;42.20;;;;;;5110311;28;20058;-71
2024/01/30 10:45:14;;;;;;;5.43;4.45;;;23.70;42.90;;;;;;5110265;28;20030;-71
2024/01/30 10:47:43;;;;;;;6.53;4.82;;;23.70;45.90;;;;;;5110271;28;20047;-72
2024/01/30 10:50:10;;;;;;;6.60;4.80;;;23.60;46.70;;;;;;5110114;28;20035;-71
2024/01/30 10:52:37;;;;;;;7.43;4.93;;;23.60;47.80;;;;;;5110764;28;20039;-71
2024/01/30 10:55:06;;;;;;;7.72;4.10;;;23.50;48.30;;;;;;5110952;28;20027;-71
2024/01/30 10:57:35;;;;;;;5.32;4.28;;;23.50;49.30;;;;;;5092419;28;20047;-71
2024/01/30 11:00:10;;;;;;;6.75;4.32;;;23.40;49.50;;;;;;5110933;28;20038;-70
2024/01/30 11:02:41;;;;;;;5.28;4.78;;;23.50;49.60;;;;;;5110942;28;20027;-71
2024/01/30 11:05:08;;;;;;;5.78;4.43;;;23.50;50.20;;;;;;5110446;28;20019;-72
2024/01/30 11:07:35;;;;;;;6.68;4.55;;;23.30;49.90;;;;;;5129772;28;20043;-71
2024/01/30 11:10:05;;;;;;;5.60;3.85;;;23.30;50.10;;;;;;5131493;27;20031;-71
2024/01/30 11:12:33;;;;;;;9.68;4.90;;;23.20;49.30;;;;;;5120630;27;20051;-71
2024/01/30 11:15:05;;;;;;;8.80;4.72;;;23.20;48.80;;;;;;5114488;28;20469;-69
2024/01/30 11:17:47;;;;;;;12.10;4.72;;;23.30;49.10;;;;;;5096040;28;20403;-71
2024/01/30 11:20:36;;;;;;;9.15;5.20;;;23.30;48.80;;;;;;5096955;28;20028;-70
2024/01/30 11:23:06;;;;;;;8.25;4.68;;;23.30;48.40;;;;;;5114184;28;20043;-70
2024/01/30 11:25:32;;;;;;;9.38;5.38;;;23.20;48.10;;;;;;5114729;28;20494;-70
2024/01/30 11:27:59;;;;;;;9.80;4.75;;;23.30;48.00;;;;;;5096241;28;20139;-70
2024/01/30 11:30:30;;;;;;;11.70;5.13;;;23.20;47.90;;;;;;5114655;28;20472;-70
2024/01/30 11:33:11;;;;;;;12.35;5.50;;;23.40;47.90;;;;;;5096015;28;20479;-70
2024/01/30 11:35:42;;;;;;;10.20;5.18;;;23.20;47.70;;;;;;5113782;28;20026;-70
2024/01/30 11:38:10;;;;;;;13.80;5.35;;;23.20;47.50;;;;;;5113533;28;20487;-70
2024/01/30 11:40:38;;;;;;;7.25;4.15;;;23.30;47.40;;;;;;5114237;28;20422;-71
2024/01/30 11:43:06;;;;;;;9.57;4.00;;;23.20;47.20;;;;;;5114314;28;20114;-70
2024/01/30 11:45:33;;;;;;;11.10;3.92;;;23.20;47.00;;;;;;5113980;28;20020;-70
2024/01/30 11:48:07;;;;;;;9.43;3.80;;;23.10;46.90;;;;;;5113931;28;20028;-69
2024/01/30 11:50:34;;;;;;;3.63;3.30;;;23.20;46.70;;;;;;5112726;28;20028;-71
2024/01/30 11:53:00;;;;;;;8.07;4.20;;;23.20;46.50;;;;;;5094599;28;20501;-69
2024/01/30 11:55:28;;;;;;;8.85;4.63;;;23.10;46.40;;;;;;5113147;28;20467;-70
2024/01/30 11:57:58;;;;;;;8.38;4.05;;;23.10;46.30;;;;;;5113298;28;20049;-68
2024/01/30 12:00:25;;;;;;;8.80;4.60;;;23.00;46.10;;;;;;5112828;28;20030;-70
2024/01/30 12:02:55;;;;;;;5.93;3.83;;;23.10;46.70;;;;;;5112948;28;20046;-71
2024/01/30 12:05:30;;;;;;;14.82;5.60;;;23.20;46.70;;;;;;5094899;28;20038;-71
2024/01/30 12:07:59;;;;;;;17.70;6.20;;;23.20;46.50;;;;;;5095204;27;20229;-71
2024/01/30 12:10:26;;;;;;;5.28;3.05;;;23.40;46.50;;;;;;5115640;27;20514;-71
2024/01/30 12:12:53;;;;;;;12.02;3.30;;;23.50;45.80;;;;;;5094043;28;20046;-69
2024/01/30 12:15:21;;;;;;;2.42;1.73;;;23.50;45.20;;;;;;5112854;28;20034;-82
2024/01/30 12:17:48;;;;;;;3.97;3.10;;;23.50;44.60;;;;;;5094577;28;20039;-76
2024/01/30 12:20:17;;;;;;;44.17;5.40;;;23.70;43.90;;;;;;5112057;28;20106;-70
2024/01/30 12:22:45;;;;;;;9.68;4.05;;;23.70;45.10;;;;;;5110859;28;20494;-70
2024/01/30 12:25:13;;;;;;;7.38;3.90;;;24.00;49.10;;;;;;5112756;28;20479;-70
2024/01/30 12:27:41;;;;;;;5.50;3.83;;;24.00;43.20;;;;;;5112580;28;20122;-71
2024/01/30 12:30:09;;;;;;;4.45;2.83;;;23.80;46.00;;;;;;5112605;28;20032;-70
2024/01/30 12:32:36;;;;;;;5.45;4.07;;;23.70;44.90;;;;;;5112539;28;20543;-69